Time;durP1;ratioP1;P1;durP2;ratioP2;P2;SDS_P1;SDS_P2;PMS_P1;PMS_P2;Temp;Humidity;BMP_temperature;BMP_pressure;BME280_temperature;BME280_humidity;BME280_pressure;Samples;Min_cycle;Max_cycle;Signal;HPM_P1;HPM_P2
2023/06/21 02:56:48;;;;;;;;;;;;;;;;;;;;;
2023/06/21 03:03:34;;;;;;;45.40;40.20;;;20.20;99.90;;;;;;5949025;24;20414;-85
2023/06/21 03:10:04;;;;;;;47.80;42.97;;;20.10;99.90;;;;;;6065988;23;20392;-83
2023/06/21 03:30:57;;;;;;;;;;;;;;;;;;;;;
2023/06/21 04:00:39;;;;;;;66.50;51.40;;;20.00;99.90;;;;;;5807036;24;20500;-86
2023/06/21 04:03:11;;;;;;;65.43;54.43;;;20.00;99.90;;;;;;6090534;23;20441;-86
2023/06/21 04:06:00;;;;;;;70.03;59.50;;;20.00;99.90;;;;;;6201214;23;20406;-86
2023/06/21 04:08:29;;;;;;;73.27;58.10;;;;;;;;;;6231512;23;20406;-87
2023/06/21 04:14:49;;;;;;;76.63;58.53;;;20.10;99.90;;;;;;6176224;23;20383;-86
2023/06/21 04:17:56;;;;;;;75.33;60.27;;;20.10;99.90;;;;;;6141442;23;20428;-88
2023/06/21 04:23:31;;;;;;;71.20;58.87;;;20.10;99.90;;;;;;6223644;23;20927;-86
2023/06/21 04:26:27;;;;;;;72.53;58.83;;;20.10;99.90;;;;;;6238607;23;20413;-87
2023/06/21 04:28:54;;;;;;;64.10;54.73;;;;;;;;;;6226452;23;20414;-86
2023/06/21 04:31:21;;;;;;;72.60;57.80;;;20.30;99.90;;;;;;6221740;23;20460;-86
2023/06/21 04:33:48;;;;;;;77.60;59.20;;;20.30;99.90;;;;;;6222845;23;20446;-88
2023/06/21 04:36:17;;;;;;;70.50;57.57;;;20.40;99.90;;;;;;6227861;23;20452;-88
2023/06/21 04:38:48;;;;;;;69.60;60.07;;;20.40;99.90;;;;;;6222793;23;20446;-87
2023/06/21 04:41:17;;;;;;;70.03;55.90;;;20.40;99.90;;;;;;6224437;23;20426;-88
2023/06/21 04:43:44;;;;;;;61.10;54.70;;;20.50;99.90;;;;;;6234065;23;20397;-87
2023/06/21 04:46:11;;;;;;;62.20;55.60;;;20.50;99.90;;;;;;6245557;23;20422;-85
2023/06/21 04:48:38;;;;;;;61.53;54.30;;;20.40;99.90;;;;;;6245950;23;20510;-85
2023/06/21 04:51:05;;;;;;;59.80;53.30;;;20.40;99.90;;;;;;6241371;23;20430;-86
2023/06/21 04:53:32;;;;;;;56.03;50.17;;;20.50;99.90;;;;;;6242579;23;20453;-84
2023/06/21 04:55:59;;;;;;;64.57;54.10;;;20.60;99.90;;;;;;6244029;23;20398;-84
2023/06/21 04:58:28;;;;;;;61.97;55.07;;;20.50;99.90;;;;;;6245680;23;20413;-84
2023/06/21 05:00:55;;;;;;;64.70;57.70;;;20.60;99.90;;;;;;6242176;23;20406;-83
2023/06/21 05:03:21;;;;;;;57.67;51.70;;;20.60;99.90;;;;;;6245751;23;20390;-85
2023/06/21 05:05:48;;;;;;;55.17;49.57;;;20.60;99.90;;;;;;6232401;23;20402;-85
2023/06/21 05:08:15;;;;;;;58.53;52.23;;;20.70;99.90;;;;;;6226336;23;20406;-86
2023/06/21 05:10:42;;;;;;;62.23;55.70;;;20.80;99.90;;;;;;6227830;23;20505;-86
2023/06/21 05:13:09;;;;;;;65.17;54.70;;;20.80;99.90;;;;;;6240056;23;20426;-85
2023/06/21 05:15:37;;;;;;;59.90;53.37;;;20.90;99.90;;;;;;6245164;23;20395;-87
2023/06/21 05:18:05;;;;;;;60.53;54.10;;;20.90;99.90;;;;;;6245373;23;20390;-83
2023/06/21 05:20:32;;;;;;;61.57;54.90;;;21.00;99.90;;;;;;6240410;23;20480;-87
2023/06/21 05:22:59;;;;;;;61.10;54.57;;;21.10;99.90;;;;;;6229869;23;20430;-87
2023/06/21 05:25:26;;;;;;;57.50;51.13;;;21.10;99.90;;;;;;6229538;23;20470;-87
2023/06/21 05:27:52;;;;;;;56.57;50.53;;;21.20;99.90;;;;;;6228528;23;20410;-87
2023/06/21 05:30:19;;;;;;;59.20;53.07;;;21.30;99.90;;;;;;6230022;23;20433;-87
2023/06/21 05:32:47;;;;;;;55.00;49.50;;;21.10;99.90;;;;;;6231172;23;20482;-86
2023/06/21 05:35:15;;;;;;;57.07;50.97;;;21.30;99.90;;;;;;6231829;23;20406;-86
2023/06/21 05:37:42;;;;;;;54.63;49.23;;;21.40;99.90;;;;;;6229436;23;20441;-86
2023/06/21 05:40:10;;;;;;;55.97;48.10;;;21.50;99.90;;;;;;6229175;23;20430;-85
2023/06/21 05:42:37;;;;;;;51.37;45.87;;;21.60;99.90;;;;;;6231361;23;20533;-86
2023/06/21 05:45:06;;;;;;;54.13;47.90;;;21.60;99.90;;;;;;6231511;23;20410;-86
2023/06/21 05:47:32;;;;;;;56.13;47.50;;;21.60;99.90;;;;;;6229597;23;20435;-85
2023/06/21 05:50:00;;;;;;;48.30;43.40;;;21.70;99.90;;;;;;6236021;23;20430;-86
2023/06/21 05:52:27;;;;;;;49.20;44.10;;;21.70;99.90;;;;;;6237265;23;20442;-85
2023/06/21 05:54:54;;;;;;;49.47;44.50;;;21.70;99.90;;;;;;6234454;23;20468;-86
2023/06/21 05:57:21;;;;;;;47.50;42.50;;;21.70;99.90;;;;;;6233660;23;20406;-86
2023/06/21 05:59:48;;;;;;;50.43;45.00;;;21.70;99.90;;;;;;6232249;23;20484;-87
2023/06/21 06:02:15;;;;;;;52.83;47.03;;;21.60;99.90;;;;;;6230496;23;20406;-87
2023/06/21 06:04:41;;;;;;;47.33;42.30;;;21.70;99.90;;;;;;6231469;23;20407;-86
2023/06/21 06:07:12;;;;;;;44.47;39.77;;;21.90;99.90;;;;;;6235494;23;20446;-86
2023/06/21 06:09:39;;;;;;;44.47;39.77;;;22.00;99.90;;;;;;6224088;23;20430;-86
2023/06/21 06:12:07;;;;;;;45.10;40.37;;;22.00;99.90;;;;;;6224609;23;20419;-86
2023/06/21 06:14:33;;;;;;;43.70;39.00;;;22.00;99.90;;;;;;6225499;23;20515;-86
2023/06/21 06:17:00;;;;;;;41.90;37.60;;;21.90;99.90;;;;;;6225833;23;20417;-87
2023/06/21 06:19:27;;;;;;;43.67;39.17;;;21.90;99.90;;;;;;6226526;23;20398;-86
2023/06/21 06:21:54;;;;;;;40.80;36.73;;;21.90;99.90;;;;;;6227103;23;20410;-86
2023/06/21 06:24:22;;;;;;;44.77;40.23;;;21.80;99.90;;;;;;6236439;23;20393;-86
2023/06/21 06:26:49;;;;;;;47.00;42.40;;;22.20;99.90;;;;;;6237699;23;20402;-86
2023/06/21 06:29:16;;;;;;;47.60;42.13;;;22.30;99.90;;;;;;6226164;23;20489;-86
2023/06/21 06:31:43;;;;;;;45.10;40.77;;;22.00;99.90;;;;;;6225635;23;20716;-87
2023/06/21 06:34:09;;;;;;;46.70;41.93;;;22.10;99.90;;;;;;6234548;23;20829;-86
2023/06/21 06:36:36;;;;;;;47.40;42.80;;;22.10;99.90;;;;;;6223028;23;20788;-86
2023/06/21 06:39:03;;;;;;;39.77;35.67;;;22.20;99.90;;;;;;6223242;23;20413;-86
2023/06/21 06:41:31;;;;;;;46.60;38.83;;;22.20;99.90;;;;;;6224999;23;20430;-86
2023/06/21 06:43:58;;;;;;;40.53;36.67;;;22.30;99.90;;;;;;6224713;23;20444;-87
2023/06/21 06:46:25;;;;;;;38.97;35.07;;;22.30;99.90;;;;;;6231337;23;20407;-85
2023/06/21 06:48:52;;;;;;;38.77;34.97;;;22.30;99.90;;;;;;6229567;23;20414;-85
2023/06/21 06:51:19;;;;;;;36.50;32.70;;;;;;;;;;6229415;23;20446;-86
2023/06/21 06:53:47;;;;;;;33.43;30.13;;;22.30;99.90;;;;;;6243108;23;20497;-85
2023/06/21 06:56:14;;;;;;;32.87;29.57;;;22.40;99.90;;;;;;6244806;23;20394;-84
2023/06/21 06:58:43;;;;;;;32.30;29.17;;;22.40;99.90;;;;;;6241593;23;20418;-87
2023/06/21 07:01:10;;;;;;;34.13;30.80;;;22.60;99.90;;;;;;6228673;23;20426;-86
2023/06/21 07:03:37;;;;;;;31.37;28.30;;;22.70;99.90;;;;;;6241037;23;20426;-85
2023/06/21 07:06:04;;;;;;;30.03;27.13;;;22.80;99.90;;;;;;6241691;23;20387;-85
2023/06/21 07:08:31;;;;;;;29.10;26.20;;;;;;;;;;6234223;23;20418;-87
2023/06/21 07:10:58;;;;;;;31.90;28.77;;;22.90;99.90;;;;;;6227187;23;20489;-87
2023/06/21 07:13:24;;;;;;;30.17;26.97;;;23.00;99.90;;;;;;6227272;23;20462;-87
2023/06/21 07:15:53;;;;;;;27.40;24.70;;;23.00;99.90;;;;;;6228037;23;20429;-87
2023/06/21 07:18:20;;;;;;;28.37;25.57;;;23.10;99.90;;;;;;6241903;23;20418;-85
2023/06/21 07:20:47;;;;;;;26.73;24.03;;;23.50;99.90;;;;;;6240166;23;20465;-85
2023/06/21 07:23:13;;;;;;;29.00;26.10;;;23.20;99.90;;;;;;6230777;23;20429;-86
2023/06/21 07:25:40;;;;;;;28.10;25.50;;;23.30;99.90;;;;;;6227025;23;20493;-87
2023/06/21 07:28:07;;;;;;;29.27;26.40;;;23.40;99.90;;;;;;6227245;23;20414;-87
2023/06/21 07:30:34;;;;;;;26.80;24.23;;;23.40;99.90;;;;;;6227805;23;20462;-86
2023/06/21 07:33:03;;;;;;;23.83;21.53;;;23.30;99.90;;;;;;6228870;23;20471;-86
2023/06/21 07:35:30;;;;;;;24.13;21.77;;;23.30;99.90;;;;;;6229301;23;20403;-86
2023/06/21 07:37:57;;;;;;;24.30;22.00;;;23.20;99.90;;;;;;6230084;23;20414;-87
2023/06/21 07:40:24;;;;;;;23.07;20.90;;;23.20;99.90;;;;;;6228010;23;20422;-87
2023/06/21 07:42:51;;;;;;;24.07;21.67;;;23.30;51.90;;;;;;6227561;23;20438;-86
2023/06/21 07:45:17;;;;;;;22.83;20.60;;;23.30;98.30;;;;;;6232842;23;20405;-86
2023/06/21 07:47:45;;;;;;;25.30;22.90;;;23.30;16.80;;;;;;6231704;22;20450;-85
2023/06/21 07:50:13;;;;;;;22.70;20.57;;;23.50;1.00;;;;;;6226865;23;20434;-85
2023/06/21 07:52:40;;;;;;;20.47;18.47;;;23.50;1.00;;;;;;6226443;23;20406;-86
2023/06/21 07:55:10;;;;;;;22.57;20.40;;;23.60;22.80;;;;;;6224687;23;20473;-85
2023/06/21 07:57:38;;;;;;;21.83;19.80;;;23.70;1.00;;;;;;6231553;23;20422;-85
2023/06/21 08:00:10;;;;;;;23.07;20.77;;;23.70;1.00;;;;;;6242212;23;20395;-85
2023/06/21 08:02:36;;;;;;;22.87;20.57;;;23.80;1.00;;;;;;6241496;23;20379;-85
2023/06/21 08:05:04;;;;;;;21.17;19.30;;;;;;;;;;6230052;23;20399;-86
2023/06/21 08:07:32;;;;;;;21.60;19.50;;;23.90;1.00;;;;;;6224920;23;20457;-86
2023/06/21 08:09:59;;;;;;;20.57;18.40;;;23.90;1.00;;;;;;6224073;23;20457;-84
2023/06/21 08:12:26;;;;;;;23.37;21.13;;;23.90;1.00;;;;;;6223199;23;20465;-84
2023/06/21 08:14:53;;;;;;;22.50;20.50;;;24.00;1.00;;;;;;6223961;23;20996;-85
2023/06/21 08:17:20;;;;;;;21.87;19.97;;;24.10;1.00;;;;;;6224338;23;20426;-85
2023/06/21 08:19:46;;;;;;;23.17;20.87;;;24.20;1.00;;;;;;6232879;23;20411;-85
2023/06/21 08:22:13;;;;;;;22.33;20.03;;;24.10;99.90;;;;;;6240212;23;20379;-85
2023/06/21 08:24:41;;;;;;;19.77;17.80;;;24.20;99.90;;;;;;6238266;23;20429;-84
2023/06/21 08:27:08;;;;;;;21.43;19.47;;;24.20;99.90;;;;;;6238728;23;20426;-85
2023/06/21 08:29:35;;;;;;;22.00;19.87;;;24.20;1.00;;;;;;6232102;23;20403;-85
2023/06/21 08:32:03;;;;;;;21.70;19.60;;;24.30;99.90;;;;;;6229301;23;20438;-85
2023/06/21 08:34:34;;;;;;;18.70;17.10;;;24.40;99.90;;;;;;6239896;23;20434;-84
2023/06/21 08:37:04;;;;;;;17.73;16.17;;;24.40;99.90;;;;;;6241459;23;20410;-84
2023/06/21 08:39:30;;;;;;;18.63;16.93;;;24.50;99.90;;;;;;6241323;23;20398;-84
2023/06/21 08:41:59;;;;;;;19.87;18.07;;;24.60;99.90;;;;;;6239551;23;20407;-83
2023/06/21 08:44:26;;;;;;;18.53;16.93;;;24.70;1.00;;;;;;6232109;23;20453;-85
2023/06/21 08:46:55;;;;;;;19.40;17.60;;;24.70;2.80;;;;;;6223636;23;20444;-84
2023/06/21 08:49:26;;;;;;;19.00;17.20;;;24.80;52.80;;;;;;6223166;23;20445;-84
2023/06/21 08:51:55;;;;;;;17.80;16.30;;;24.90;1.00;;;;;;6223479;23;20391;-84
2023/06/21 08:54:28;;;;;;;17.87;16.23;;;24.80;99.90;;;;;;6224836;23;20514;-84
2023/06/21 08:57:01;;;;;;;17.43;15.70;;;24.90;1.00;;;;;;6225167;23;20430;-86
2023/06/21 08:59:34;;;;;;;17.27;15.50;;;25.00;99.90;;;;;;6225091;23;20409;-85
2023/06/21 09:02:10;;;;;;;16.80;15.20;;;24.90;99.90;;;;;;6223005;23;20391;-84
2023/06/21 09:04:46;;;;;;;15.50;14.17;;;25.00;1.00;;;;;;6223261;23;20383;-84
2023/06/21 09:07:15;;;;;;;16.80;15.20;;;25.10;1.00;;;;;;6223177;23;20504;-85
2023/06/21 09:09:44;;;;;;;16.43;14.90;;;25.20;1.00;;;;;;6224005;23;20457;-85
2023/06/21 09:12:17;;;;;;;16.57;14.90;;;25.70;1.00;;;;;;6223436;23;20743;-85
2023/06/21 09:14:44;;;;;;;15.20;13.53;;;25.30;1.00;;;;;;6225119;23;20436;-83
2023/06/21 09:17:12;;;;;;;15.03;13.63;;;25.40;99.90;;;;;;6225555;23;20434;-84
2023/06/21 09:19:39;;;;;;;14.07;12.77;;;25.50;99.90;;;;;;6233460;23;20421;-85
2023/06/21 09:22:07;;;;;;;13.47;12.27;;;25.60;99.90;;;;;;6244592;23;20437;-84
2023/06/21 09:24:34;;;;;;;12.63;11.53;;;25.60;99.90;;;;;;6240196;23;20403;-84
2023/06/21 09:27:01;;;;;;;12.80;11.77;;;25.60;99.90;;;;;;6225563;23;20934;-85
2023/06/21 09:29:29;;;;;;;13.57;12.30;;;25.60;99.90;;;;;;6233213;23;20402;-84
2023/06/21 09:31:57;;;;;;;13.70;12.40;;;25.60;1.00;;;;;;6227653;23;20470;-85
2023/06/21 09:34:24;;;;;;;13.13;11.83;;;25.40;1.00;;;;;;6232151;23;20514;-84
2023/06/21 09:36:51;;;;;;;13.00;11.90;;;25.40;1.00;;;;;;6223736;23;20431;-84
2023/06/21 09:39:18;;;;;;;12.03;11.03;;;25.40;1.00;;;;;;6226461;23;20441;-85
2023/06/21 09:41:45;;;;;;;11.97;10.90;;;25.50;1.00;;;;;;6224304;23;20426;-84
2023/06/21 09:44:12;;;;;;;13.07;11.90;;;25.50;1.00;;;;;;6231832;23;20410;-84
2023/06/21 09:46:41;;;;;;;11.67;10.67;;;25.70;99.90;;;;;;6222968;23;20434;-85
2023/06/21 09:49:09;;;;;;;17.17;15.37;;;25.80;51.40;;;;;;6227799;23;20386;-84
2023/06/21 09:51:42;;;;;;;12.67;11.43;;;25.90;99.90;;;;;;6244693;23;20421;-83
2023/06/21 09:54:09;;;;;;;12.43;11.43;;;26.00;1.00;;;;;;6243245;23;20438;-84
2023/06/21 09:56:54;;;;;;;11.93;10.83;;;25.90;99.90;;;;;;6226225;23;20426;-86
2023/06/21 09:59:22;;;;;;;11.07;10.13;;;25.90;99.90;;;;;;6227936;23;20430;-85
2023/06/21 10:01:50;;;;;;;12.57;11.43;;;26.00;1.00;;;;;;6224759;23;20406;-85
2023/06/21 10:04:18;;;;;;;12.47;11.30;;;26.10;1.00;;;;;;6222556;23;20434;-84
2023/06/21 10:06:49;;;;;;;13.40;12.30;;;26.00;99.90;;;;;;6223638;23;20435;-85
2023/06/21 10:09:16;;;;;;;12.67;11.37;;;25.90;1.00;;;;;;6222956;23;20407;-86
2023/06/21 10:11:44;;;;;;;11.97;11.00;;;25.90;99.90;;;;;;6221399;23;20406;-84
2023/06/21 10:14:30;;;;;;;10.37;9.37;;;25.90;1.00;;;;;;6220627;23;20445;-85
2023/06/21 10:17:01;;;;;;;11.00;10.10;;;26.00;99.90;;;;;;6222193;23;20456;-85
2023/06/21 10:19:30;;;;;;;12.13;10.90;;;26.00;1.00;;;;;;6225088;23;20441;-89
2023/06/21 10:22:01;;;;;;;11.90;10.80;;;26.10;1.00;;;;;;6226705;23;20412;-89
2023/06/21 10:24:33;;;;;;;13.33;12.20;;;26.10;68.00;;;;;;6228391;23;20386;-89
2023/06/21 10:27:00;;;;;;;12.50;11.47;;;26.20;99.90;;;;;;6222778;23;20502;-89
2023/06/21 10:29:29;;;;;;;11.83;10.83;;;26.20;55.30;;;;;;6223203;23;20402;-89
2023/06/21 10:32:00;;;;;;;12.33;11.43;;;26.30;99.90;;;;;;6224038;23;20485;-90
2023/06/21 10:34:31;;;;;;;11.87;10.87;;;26.30;1.00;;;;;;6224206;23;20434;-90
2023/06/21 10:37:03;;;;;;;11.40;10.37;;;26.20;1.00;;;;;;6224078;23;20458;-90
2023/06/21 10:39:34;;;;;;;12.00;11.00;;;26.20;1.00;;;;;;6223159;23;20430;-90
2023/06/21 10:42:02;;;;;;;11.37;10.47;;;26.30;1.00;;;;;;6222167;23;20431;-89
2023/06/21 10:44:30;;;;;;;10.83;9.93;;;26.30;1.00;;;;;;6230787;23;20458;-89
2023/06/21 10:47:00;;;;;;;10.27;9.37;;;26.30;99.90;;;;;;6243799;23;20450;-89
2023/06/21 10:49:27;;;;;;;11.57;10.57;;;26.30;99.90;;;;;;6243643;23;20409;-89
2023/06/21 10:51:56;;;;;;;9.40;8.50;;;26.30;99.90;;;;;;6235285;23;20407;-90
2023/06/21 10:54:24;;;;;;;10.10;9.20;;;26.20;99.90;;;;;;6229566;23;20469;-90
2023/06/21 10:56:54;;;;;;;10.53;9.40;;;26.60;1.00;;;;;;6226871;23;20422;-90
2023/06/21 10:59:24;;;;;;;10.20;9.40;;;26.10;99.90;;;;;;6223091;23;20747;-89
2023/06/21 11:01:51;;;;;;;11.13;10.13;;;26.30;99.90;;;;;;6222726;23;20422;-90
2023/06/21 11:04:19;;;;;;;9.50;8.77;;;25.80;1.00;;;;;;6221786;23;20398;-90
2023/06/21 11:06:46;;;;;;;11.23;10.23;;;26.20;1.00;;;;;;6221043;23;20438;-90
2023/06/21 11:09:18;;;;;;;10.00;9.20;;;26.30;1.00;;;;;;6221545;23;20406;-90
2023/06/21 11:11:54;;;;;;;10.57;9.57;;;26.30;99.90;;;;;;6222640;23;20402;-89
2023/06/21 11:14:22;;;;;;;9.40;8.57;;;26.50;1.00;;;;;;6222071;23;20475;-89
2023/06/21 11:16:49;;;;;;;8.20;7.60;;;26.80;99.90;;;;;;6224129;23;20806;-90
2023/06/21 11:19:17;;;;;;;9.30;8.57;;;26.60;99.90;;;;;;6221804;23;20449;-90
2023/06/21 11:21:49;;;;;;;8.33;7.73;;;26.80;99.90;;;;;;6221726;23;20460;-90
2023/06/21 11:24:17;;;;;;;9.03;8.23;;;26.70;99.90;;;;;;6242559;23;20386;-89
2023/06/21 11:26:58;;;;;;;7.93;7.33;;;26.70;99.90;;;;;;6244397;23;20410;-89
2023/06/21 11:30:09;;;;;;;9.07;8.30;;;27.20;1.00;;;;;;6240126;23;20398;-89
2023/06/21 11:33:29;;;;;;;8.77;8.07;;;26.80;99.90;;;;;;6103323;23;20418;-90
2023/06/21 11:36:33;;;;;;;8.50;7.70;;;27.00;99.90;;;;;;6242779;23;20441;-89
2023/06/21 11:39:36;;;;;;;8.93;8.23;;;27.10;99.90;;;;;;6242979;23;20397;-89
2023/06/21 11:42:25;;;;;;;9.10;8.40;;;27.00;99.90;;;;;;6233186;23;20398;-90
2023/06/21 11:44:57;;;;;;;7.83;7.23;;;27.00;99.90;;;;;;6243615;23;20430;-88
2023/06/21 11:47:30;;;;;;;8.57;7.87;;;26.90;99.90;;;;;;6243389;23;20426;-89
2023/06/21 11:49:59;;;;;;;8.67;7.77;;;;;;;;;;6243844;23;20390;-89
2023/06/21 11:52:33;;;;;;;9.00;7.90;;;26.80;59.40;;;;;;6243865;23;20422;-89
2023/06/21 11:55:17;;;;;;;7.97;7.27;;;26.20;99.90;;;;;;6243047;23;20433;-89
2023/06/21 11:58:09;;;;;;;8.33;7.67;;;26.90;99.90;;;;;;6241750;23;20440;-89
2023/06/21 12:00:44;;;;;;;7.40;6.70;;;;;;;;;;6238317;23;20391;-89
2023/06/21 12:03:12;;;;;;;8.20;7.60;;;;;;;;;;6227933;23;20417;-90
2023/06/21 12:05:50;;;;;;;8.40;7.60;;;26.20;1.00;;;;;;6228983;23;20492;-89
2023/06/21 12:08:18;;;;;;;8.90;8.10;;;26.40;99.90;;;;;;6227651;23;20422;-88
2023/06/21 12:10:49;;;;;;;8.07;7.40;;;26.20;99.90;;;;;;6232108;23;20413;-88
2023/06/21 12:13:19;;;;;;;8.10;7.50;;;26.20;99.90;;;;;;6231468;23;20390;-89
2023/06/21 12:15:48;;;;;;;9.43;8.63;;;;;;;;;;6225917;23;20470;-89
2023/06/21 12:18:15;;;;;;;9.40;8.60;;;;;;;;;;6223322;23;20526;-89
2023/06/21 12:20:42;;;;;;;9.60;8.70;;;;;;;;;;6228520;23;20437;-89
2023/06/21 12:23:10;;;;;;;8.47;7.80;;;;;;;;;;6244005;23;20421;-88
2023/06/21 12:25:48;;;;;;;8.13;7.50;;;27.10;99.90;;;;;;6241252;23;20477;-89
2023/06/21 12:28:17;;;;;;;8.87;7.97;;;;;;;;;;6225142;23;20426;-89
2023/06/21 12:31:01;;;;;;;8.87;8.00;;;27.10;99.90;;;;;;6224226;23;20418;-90
2023/06/21 12:33:30;;;;;;;9.03;8.23;;;27.10;99.90;;;;;;6225804;23;20472;-90
2023/06/21 12:36:20;;;;;;;8.20;7.60;;;27.00;34.50;;;;;;6226206;23;20410;-89
2023/06/21 12:39:01;;;;;;;8.37;7.67;;;27.10;1.00;;;;;;6224523;23;20397;-89
2023/06/21 12:41:37;;;;;;;8.97;8.17;;;27.20;99.90;;;;;;6224480;23;20410;-90
2023/06/21 12:44:07;;;;;;;11.00;10.00;;;27.20;1.00;;;;;;6224559;23;20397;-90
2023/06/21 12:46:42;;;;;;;8.60;7.80;;;27.30;99.90;;;;;;6222835;23;20438;-90
2023/06/21 12:49:09;;;;;;;8.80;8.10;;;;;;;;;;6224275;23;20397;-90
2023/06/21 12:51:37;;;;;;;8.80;8.00;;;27.30;99.90;;;;;;6223113;23;20465;-88
2023/06/21 12:54:06;;;;;;;8.70;8.00;;;27.10;99.90;;;;;;6223980;23;20433;-88
2023/06/21 12:56:50;;;;;;;8.80;8.00;;;27.30;99.90;;;;;;6226737;23;20487;-90
2023/06/21 12:59:18;;;;;;;7.70;7.00;;;;;;;;;;6224948;23;20946;-90
2023/06/21 13:01:45;;;;;;;9.03;7.77;;;;;;;;;;6222059;23;20792;-90
2023/06/21 13:04:14;;;;;;;8.43;7.63;;;27.50;76.50;;;;;;6222534;23;20500;-89
2023/06/21 13:06:41;;;;;;;7.57;6.97;;;;;;;;;;6223261;23;20453;-90
2023/06/21 13:09:09;;;;;;;8.43;7.73;;;27.40;1.00;;;;;;6223943;23;20410;-90
2023/06/21 13:11:38;;;;;;;7.77;7.00;;;27.30;1.00;;;;;;6224536;23;20430;-89
2023/06/21 13:14:06;;;;;;;7.90;7.30;;;27.30;2.70;;;;;;6225416;23;20489;-90
2023/06/21 13:16:33;;;;;;;8.17;7.47;;;27.20;1.00;;;;;;6229555;23;20426;-89
2023/06/21 13:19:00;;;;;;;7.80;7.10;;;;;;;;;;6240838;23;20478;-90
2023/06/21 13:21:27;;;;;;;8.37;7.70;;;;;;;;;;6238449;23;20402;-90
2023/06/21 13:23:56;;;;;;;8.47;7.77;;;27.50;41.30;;;;;;6229880;23;20883;-90
2023/06/21 13:26:25;;;;;;;7.97;7.27;;;27.50;99.90;;;;;;6225436;23;20438;-90
2023/06/21 13:29:02;;;;;;;7.67;7.07;;;27.40;1.00;;;;;;6224114;23;20418;-90
2023/06/21 13:31:41;;;;;;;6.93;6.40;;;27.50;1.00;;;;;;6225003;23;20375;-89
2023/06/21 13:34:11;;;;;;;7.80;7.10;;;;;;;;;;6226525;23;20430;-89
2023/06/21 13:36:38;;;;;;;6.97;6.50;;;;;;;;;;6238858;23;20450;-89
2023/06/21 13:39:06;;;;;;;7.67;7.00;;;;;;;;;;6239166;23;20407;-89
2023/06/21 13:41:33;;;;;;;9.60;7.67;;;27.50;99.90;;;;;;6236660;23;20410;-90
2023/06/21 13:44:13;;;;;;;7.83;7.23;;;27.40;1.00;;;;;;6232706;23;20414;-89
2023/06/21 13:46:40;;;;;;;6.93;6.43;;;27.40;1.00;;;;;;6239978;23;20442;-89
2023/06/21 13:49:07;;;;;;;6.87;6.27;;;27.50;1.00;;;;;;6243041;23;20395;-90
2023/06/21 13:51:34;;;;;;;7.10;6.40;;;27.60;1.00;;;;;;6242809;23;20410;-88
2023/06/21 13:54:01;;;;;;;8.70;7.80;;;27.80;1.00;;;;;;6227279;23;20490;-89
2023/06/21 13:56:38;;;;;;;8.13;7.43;;;28.20;99.90;;;;;;6226105;23;20489;-89
2023/06/21 13:59:07;;;;;;;7.63;7.03;;;28.00;1.00;;;;;;6227122;23;20484;-88
2023/06/21 14:01:39;;;;;;;7.80;7.20;;;28.10;1.00;;;;;;6229258;23;20406;-89
2023/06/21 14:04:06;;;;;;;7.33;6.73;;;;;;;;;;6244763;23;20502;-89
2023/06/21 14:06:33;;;;;;;7.33;6.77;;;27.80;1.00;;;;;;6244683;23;20469;-89
2023/06/21 14:09:00;;;;;;;7.30;6.80;;;;;;;;;;6244594;23;20402;-89
2023/06/21 14:11:28;;;;;;;8.57;7.83;;;;;;;;;;6236429;23;20476;-89
2023/06/21 14:13:55;;;;;;;7.27;6.67;;;;;;;;;;6227427;23;20414;-89
2023/06/21 14:16:33;;;;;;;7.73;7.13;;;27.70;9.80;;;;;;6224982;23;20406;-89
2023/06/21 14:19:06;;;;;;;6.90;6.30;;;28.20;1.00;;;;;;6231226;23;20409;-88
2023/06/21 14:21:34;;;;;;;8.40;7.70;;;;;;;;;;6228586;23;20483;-88
2023/06/21 14:24:01;;;;;;;8.07;7.37;;;;;;;;;;6226058;23;20421;-89
2023/06/21 14:26:30;;;;;;;8.03;7.30;;;28.20;1.00;;;;;;6225656;23;20450;-90
2023/06/21 14:28:58;;;;;;;12.03;10.83;;;;;;;;;;6225504;23;20395;-89
2023/06/21 14:31:29;;;;;;;9.70;8.80;;;28.10;1.00;;;;;;6224565;23;20952;-89
2023/06/21 14:33:56;;;;;;;8.70;8.00;;;;;;;;;;6227271;23;20414;-90
2023/06/21 14:36:30;;;;;;;9.67;8.87;;;28.00;1.00;;;;;;6232452;23;20399;-87
2023/06/21 14:39:04;;;;;;;8.53;7.83;;;27.90;1.00;;;;;;6242169;23;20391;-87
2023/06/21 14:41:31;;;;;;;8.53;7.93;;;;;;;;;;6226306;23;20390;-89
2023/06/21 14:43:59;;;;;;;9.10;8.20;;;;;;;;;;6223639;23;20464;-89
2023/06/21 14:46:28;;;;;;;11.20;10.10;;;27.80;1.00;;;;;;6224609;23;20438;-89
2023/06/21 14:48:55;;;;;;;7.67;7.07;;;;;;;;;;6224800;23;20407;-89
2023/06/21 14:51:26;;;;;;;8.93;8.23;;;27.80;1.00;;;;;;6230283;23;20406;-89
2023/06/21 14:53:58;;;;;;;9.90;9.00;;;27.80;1.00;;;;;;6227977;23;20449;-89
2023/06/21 14:56:31;;;;;;;8.40;7.70;;;27.80;1.00;;;;;;6222922;23;20391;-88
2023/06/21 14:58:58;;;;;;;8.87;8.10;;;;;;;;;;6224645;23;20414;-89
2023/06/21 15:01:26;;;;;;;7.93;7.33;;;27.80;1.00;;;;;;6222922;23;20406;-89
2023/06/21 15:03:54;;;;;;;8.47;7.63;;;;;;;;;;6235116;23;20375;-91
2023/06/21 15:06:21;;;;;;;8.27;7.57;;;27.80;1.00;;;;;;6234212;23;20472;-91
2023/06/21 15:08:48;;;;;;;8.60;7.90;;;28.00;1.00;;;;;;6232704;23;20437;-89
2023/06/21 15:11:15;;;;;;;7.37;6.77;;;28.10;1.00;;;;;;6228151;23;20407;-89
2023/06/21 15:13:43;;;;;;;8.07;7.37;;;;;;;;;;6224749;23;20406;-89
2023/06/21 15:16:09;;;;;;;7.27;6.63;;;27.80;1.00;;;;;;6225192;23;20897;-89
2023/06/21 15:18:38;;;;;;;9.43;8.47;;;28.10;1.00;;;;;;6223061;23;20438;-89
2023/06/21 15:21:05;;;;;;;7.70;7.10;;;27.70;1.00;;;;;;6227283;23;20469;-90
2023/06/21 15:23:31;;;;;;;8.30;7.60;;;28.40;1.00;;;;;;6243665;23;20407;-89
2023/06/21 15:25:58;;;;;;;8.00;7.20;;;28.00;1.00;;;;;;6240719;23;20446;-90
2023/06/21 15:28:25;;;;;;;9.87;8.87;;;27.90;1.00;;;;;;6226785;23;20454;-90
2023/06/21 15:30:52;;;;;;;7.13;6.53;;;27.90;1.00;;;;;;6225445;23;20417;-89
2023/06/21 15:33:19;;;;;;;7.47;6.87;;;27.40;1.00;;;;;;6227240;23;20470;-90
2023/06/21 15:35:47;;;;;;;7.83;7.23;;;27.60;1.00;;;;;;6228732;23;20441;-89
2023/06/21 15:38:14;;;;;;;7.87;7.17;;;27.60;1.00;;;;;;6226057;23;20836;-90
2023/06/21 15:40:41;;;;;;;7.80;7.10;;;27.70;1.00;;;;;;6224068;23;20493;-90
2023/06/21 15:43:08;;;;;;;12.00;11.00;;;27.60;1.00;;;;;;6223789;23;20796;-90
2023/06/21 15:45:38;;;;;;;8.07;7.43;;;;;;;;;;6225494;23;20438;-91
2023/06/21 15:48:06;;;;;;;7.93;7.33;;;27.60;1.00;;;;;;6240390;23;20470;-91
2023/06/21 15:50:35;;;;;;;7.30;6.70;;;27.60;1.00;;;;;;6233653;23;20411;-91
2023/06/21 15:53:42;;;;;;;7.60;7.07;;;27.60;1.00;;;;;;6226687;23;20423;-90
2023/06/21 15:56:10;;;;;;;7.07;6.47;;;;;;;;;;6218036;23;20407;-91
2023/06/21 15:58:39;;;;;;;7.00;6.30;;;;;;;;;;6229940;23;20462;-91
2023/06/21 16:01:08;;;;;;;6.50;5.90;;;;;;;;;;6225462;23;20434;-91
2023/06/21 16:03:48;;;;;;;7.07;6.47;;;27.40;1.00;;;;;;6228384;23;20427;-89
2023/06/21 16:06:16;;;;;;;7.60;6.90;;;;;;;;;;6241635;23;20500;-90
2023/06/21 16:08:48;;;;;;;7.23;6.63;;;27.70;1.00;;;;;;6243068;23;20402;-90
2023/06/21 16:11:18;;;;;;;6.70;6.20;;;;;;;;;;6243591;23;20388;-90
2023/06/21 16:13:46;;;;;;;9.27;7.40;;;;;;;;;;6243569;23;20387;-90
2023/06/21 16:16:30;;;;;;;9.43;6.57;;;27.20;1.00;;;;;;6243462;23;20402;-91
2023/06/21 16:25:32;;;;;;;7.27;6.60;;;27.30;1.00;;;;;;6221411;22;20434;-90
2023/06/21 16:27:59;;;;;;;6.83;6.23;;;;;;;;;;6243438;23;20430;-91
2023/06/21 16:30:29;;;;;;;7.03;6.33;;;;;;;;;;6243112;23;20421;-91
2023/06/21 16:32:56;;;;;;;6.20;5.80;;;;;;;;;;6243160;23;20395;-91
2023/06/21 16:35:29;;;;;;;6.80;6.20;;;27.40;1.00;;;;;;6241043;23;20406;-90
2023/06/21 16:37:56;;;;;;;10.10;7.07;;;;;;;;;;6226668;22;20488;-85
2023/06/21 16:40:34;;;;;;;6.50;6.00;;;27.30;1.00;;;;;;6226519;23;20395;-87
2023/06/21 16:43:01;;;;;;;7.23;6.53;;;;;;;;;;6224857;23;20398;-87
2023/06/21 16:45:31;;;;;;;6.83;6.03;;;27.40;1.00;;;;;;6226049;23;20706;-87
2023/06/21 16:48:11;;;;;;;7.40;6.80;;;27.30;1.00;;;;;;6224226;23;20438;-86
2023/06/21 16:50:41;;;;;;;6.10;5.60;;;27.30;1.00;;;;;;6226243;23;20411;-86
2023/06/21 16:53:09;;;;;;;6.70;5.97;;;;;;;;;;6226672;23;20418;-87
2023/06/21 16:55:38;;;;;;;6.67;6.17;;;27.20;1.00;;;;;;6224520;23;20486;-87
2023/06/21 16:58:06;;;;;;;7.60;7.00;;;;;;;;;;6224625;23;20430;-85
2023/06/21 17:00:34;;;;;;;7.43;6.83;;;;;;;;;;6238590;23;20393;-86
2023/06/21 17:03:04;;;;;;;7.27;6.67;;;27.30;1.00;;;;;;6240026;23;20473;-87
2023/06/21 17:05:34;;;;;;;7.37;6.77;;;27.20;1.00;;;;;;6242357;23;20399;-87
2023/06/21 17:08:11;;;;;;;9.40;7.77;;;27.20;1.00;;;;;;6240706;23;20450;-87
2023/06/21 17:10:44;;;;;;;7.13;6.43;;;27.20;1.00;;;;;;6235380;23;20754;-88
2023/06/21 17:13:12;;;;;;;8.00;7.40;;;;;;;;;;6237547;23;20410;-88
2023/06/21 17:15:39;;;;;;;8.50;7.80;;;;;;;;;;6240954;23;20395;-88